sensor_id;sensor_type;location;lat;lon;timestamp;pressure;altitude;pressure_sealevel;temperature;humidity
26083;BME280;13848;49.018;12.078;2023-12-07T00:00:46;97853.41;;;1.65;89.86
26083;BME280;13848;49.018;12.078;2023-12-07T00:03:12;97860.06;;;1.69;89.75
26083;BME280;13848;49.018;12.078;2023-12-07T00:05:38;97863.22;;;1.73;89.66
26083;BME280;13848;49.018;12.078;2023-12-07T00:08:03;97860.25;;;1.84;89.42
26083;BME280;13848;49.018;12.078;2023-12-07T00:10:29;97857.94;;;1.81;89.25
26083;BME280;13848;49.018;12.078;2023-12-07T00:12:55;97868.06;;;1.77;88.73
26083;BME280;13848;49.018;12.078;2023-12-07T00:15:23;97861.75;;;1.78;89.46
26083;BME280;13848;49.018;12.078;2023-12-07T00:17:49;97868.13;;;2.02;90.55
26083;BME280;13848;49.018;12.078;2023-12-07T00:20:14;97870.16;;;2.16;89.72
26083;BME280;13848;49.018;12.078;2023-12-07T00:22:40;97873.78;;;1.99;88.43
26083;BME280;13848;49.018;12.078;2023-12-07T00:25:07;97879.69;;;1.84;88.84
26083;BME280;13848;49.018;12.078;2023-12-07T00:27:33;97870.72;;;1.85;88.96
26083;BME280;13848;49.018;12.078;2023-12-07T00:29:59;97871.53;;;1.78;89.21
26083;BME280;13848;49.018;12.078;2023-12-07T00:32:26;97869.72;;;1.78;89.53
26083;BME280;13848;49.018;12.078;2023-12-07T00:34:52;97864.69;;;1.67;89.61
26083;BME280;13848;49.018;12.078;2023-12-07T00:37:18;97864.38;;;1.70;89.86
26083;BME280;13848;49.018;12.078;2023-12-07T00:39:44;97864.97;;;1.48;90.72
26083;BME280;13848;49.018;12.078;2023-12-07T00:42:10;97878.31;;;1.64;90.56
26083;BME280;13848;49.018;12.078;2023-12-07T00:44:39;97880.81;;;1.74;89.86
26083;BME280;13848;49.018;12.078;2023-12-07T00:47:05;97871.53;;;1.78;89.61
26083;BME280;13848;49.018;12.078;2023-12-07T00:49:32;97873.59;;;1.50;90.63
26083;BME280;13848;49.018;12.078;2023-12-07T00:51:58;97880.19;;;1.38;90.80
26083;BME280;13848;49.018;12.078;2023-12-07T00:54:24;97878.44;;;1.20;92.48
26083;BME280;13848;49.018;12.078;2023-12-07T00:56:50;97878.72;;;1.09;92.92
26083;BME280;13848;49.018;12.078;2023-12-07T00:59:16;97881.28;;;1.19;92.69
26083;BME280;13848;49.018;12.078;2023-12-07T01:01:42;97884.09;;;1.17;92.87
26083;BME280;13848;49.018;12.078;2023-12-07T01:04:08;97877.03;;;1.00;94.33
26083;BME280;13848;49.018;12.078;2023-12-07T01:06:35;97883.63;;;0.96;94.61
26083;BME280;13848;49.018;12.078;2023-12-07T01:09:01;97884.81;;;1.01;95.01
26083;BME280;13848;49.018;12.078;2023-12-07T01:11:27;97882.84;;;1.03;94.87
26083;BME280;13848;49.018;12.078;2023-12-07T01:13:53;97888.34;;;1.10;94.79
26083;BME280;13848;49.018;12.078;2023-12-07T01:16:18;97887.94;;;0.97;95.27
26083;BME280;13848;49.018;12.078;2023-12-07T01:18:44;97880.53;;;1.09;94.80
26083;BME280;13848;49.018;12.078;2023-12-07T01:21:10;97893.38;;;1.21;94.06
26083;BME280;13848;49.018;12.078;2023-12-07T01:23:38;97890.81;;;1.38;93.44
26083;BME280;13848;49.018;12.078;2023-12-07T01:26:04;97891.84;;;1.45;92.30
26083;BME280;13848;49.018;12.078;2023-12-07T01:28:30;97892.72;;;1.45;92.13
26083;BME280;13848;49.018;12.078;2023-12-07T01:30:55;97899.50;;;1.48;92.50
26083;BME280;13848;49.018;12.078;2023-12-07T01:33:21;97896.22;;;1.54;92.11
26083;BME280;13848;49.018;12.078;2023-12-07T01:35:47;97906.13;;;1.44;92.29
26083;BME280;13848;49.018;12.078;2023-12-07T01:38:13;97901.16;;;1.49;92.06
26083;BME280;13848;49.018;12.078;2023-12-07T01:40:40;97903.16;;;1.47;92.10
26083;BME280;13848;49.018;12.078;2023-12-07T01:43:06;97910.31;;;1.46;92.17
26083;BME280;13848;49.018;12.078;2023-12-07T01:45:32;97913.09;;;1.45;91.75
26083;BME280;13848;49.018;12.078;2023-12-07T01:47:58;97915.81;;;1.53;91.52
26083;BME280;13848;49.018;12.078;2023-12-07T01:50:25;97920.50;;;1.59;91.49
26083;BME280;13848;49.018;12.078;2023-12-07T01:52:55;97922.78;;;1.54;91.67
26083;BME280;13848;49.018;12.078;2023-12-07T01:55:23;97925.81;;;1.59;91.29
26083;BME280;13848;49.018;12.078;2023-12-07T01:57:51;97924.13;;;1.58;91.23
26083;BME280;13848;49.018;12.078;2023-12-07T02:00:17;97927.16;;;1.63;91.10
26083;BME280;13848;49.018;12.078;2023-12-07T02:02:43;97923.16;;;1.59;90.92
26083;BME280;13848;49.018;12.078;2023-12-07T02:05:09;97925.47;;;1.62;90.71
26083;BME280;13848;49.018;12.078;2023-12-07T02:07:36;97930.47;;;1.65;90.90
26083;BME280;13848;49.018;12.078;2023-12-07T02:10:02;97933.41;;;1.54;90.65
26083;BME280;13848;49.018;12.078;2023-12-07T02:12:28;97940.09;;;1.58;91.09
26083;BME280;13848;49.018;12.078;2023-12-07T02:14:56;97939.75;;;1.61;90.85
26083;BME280;13848;49.018;12.078;2023-12-07T02:17:28;97943.59;;;1.67;90.28
26083;BME280;13848;49.018;12.078;2023-12-07T02:19:59;97937.78;;;1.63;90.40
26083;BME280;13848;49.018;12.078;2023-12-07T02:22:30;97948.56;;;1.62;90.77
26083;BME280;13848;49.018;12.078;2023-12-07T02:25:06;97946.13;;;1.68;90.57
26083;BME280;13848;49.018;12.078;2023-12-07T02:27:38;97943.78;;;1.73;90.09
26083;BME280;13848;49.018;12.078;2023-12-07T02:30:05;97939.44;;;1.64;90.05
26083;BME280;13848;49.018;12.078;2023-12-07T02:32:32;97938.63;;;1.64;90.30
26083;BME280;13848;49.018;12.078;2023-12-07T02:34:58;97944.75;;;1.64;90.39
26083;BME280;13848;49.018;12.078;2023-12-07T02:37:28;97941.94;;;1.66;90.19
26083;BME280;13848;49.018;12.078;2023-12-07T02:39:55;97942.97;;;1.73;90.38
26083;BME280;13848;49.018;12.078;2023-12-07T02:42:22;97945.25;;;1.68;89.77
26083;BME280;13848;49.018;12.078;2023-12-07T02:44:52;97950.25;;;1.63;90.45
26083;BME280;13848;49.018;12.078;2023-12-07T02:47:18;97946.13;;;1.68;89.85
26083;BME280;13848;49.018;12.078;2023-12-07T02:49:44;97941.94;;;1.66;90.46
26083;BME280;13848;49.018;12.078;2023-12-07T02:52:10;97949.06;;;1.65;90.28
26083;BME280;13848;49.018;12.078;2023-12-07T02:54:36;97947.78;;;1.69;89.92
26083;BME280;13848;49.018;12.078;2023-12-07T02:57:02;97941.50;;;1.78;90.05
26083;BME280;13848;49.018;12.078;2023-12-07T02:59:28;97940.81;;;1.68;89.62
26083;BME280;13848;49.018;12.078;2023-12-07T03:01:55;97944.44;;;1.67;90.07
26083;BME280;13848;49.018;12.078;2023-12-07T03:04:21;97947.78;;;1.69;90.14
26083;BME280;13848;49.018;12.078;2023-12-07T03:06:47;97956.53;;;1.62;90.14
26083;BME280;13848;49.018;12.078;2023-12-07T03:09:13;97952.91;;;1.63;90.17
26083;BME280;13848;49.018;12.078;2023-12-07T03:11:39;97948.91;;;1.67;90.29
26083;BME280;13848;49.018;12.078;2023-12-07T03:14:05;97956.75;;;1.68;89.37
26083;BME280;13848;49.018;12.078;2023-12-07T03:16:31;97953.09;;;1.69;89.98
26083;BME280;13848;49.018;12.078;2023-12-07T03:19:00;97955.06;;;1.67;89.97
26083;BME280;13848;49.018;12.078;2023-12-07T03:21:26;97957.25;;;1.72;89.58
26083;BME280;13848;49.018;12.078;2023-12-07T03:23:52;97960.91;;;1.71;89.79
26083;BME280;13848;49.018;12.078;2023-12-07T03:26:18;97965.06;;;1.73;89.29
26083;BME280;13848;49.018;12.078;2023-12-07T03:28:44;97965.38;;;1.70;89.43
26083;BME280;13848;49.018;12.078;2023-12-07T03:31:10;97969.06;;;1.77;89.88
26083;BME280;13848;49.018;12.078;2023-12-07T03:33:36;97972.56;;;1.78;89.50
26083;BME280;13848;49.018;12.078;2023-12-07T03:36:03;97969.72;;;1.79;89.41
26083;BME280;13848;49.018;12.078;2023-12-07T03:38:30;97974.06;;;1.80;89.03
26083;BME280;13848;49.018;12.078;2023-12-07T03:40:56;97980.41;;;1.88;89.10
26083;BME280;13848;49.018;12.078;2023-12-07T03:43:22;97977.75;;;1.88;89.01
26083;BME280;13848;49.018;12.078;2023-12-07T03:45:48;97987.75;;;1.94;88.91
26083;BME280;13848;49.018;12.078;2023-12-07T03:48:14;97986.03;;;1.84;88.71
26083;BME280;13848;49.018;12.078;2023-12-07T03:50:40;97990.69;;;1.82;89.41
26083;BME280;13848;49.018;12.078;2023-12-07T03:53:07;97978.69;;;1.78;89.50
26083;BME280;13848;49.018;12.078;2023-12-07T03:55:33;97984.19;;;1.77;89.50
26083;BME280;13848;49.018;12.078;2023-12-07T03:57:59;97977.38;;;1.74;89.49
26083;BME280;13848;49.018;12.078;2023-12-07T04:00:25;97988.34;;;1.79;89.56
26083;BME280;13848;49.018;12.078;2023-12-07T04:02:51;97983.34;;;1.76;89.44
26083;BME280;13848;49.018;12.078;2023-12-07T04:05:17;97985.69;;;1.79;89.10
26083;BME280;13848;49.018;12.078;2023-12-07T04:07:43;97990.34;;;1.77;89.20
26083;BME280;13848;49.018;12.078;2023-12-07T04:10:10;97989.13;;;1.72;89.58
26083;BME280;13848;49.018;12.078;2023-12-07T04:12:36;97998.94;;;1.71;89.86
26083;BME280;13848;49.018;12.078;2023-12-07T04:15:03;97993.97;;;1.68;89.52
26083;BME280;13848;49.018;12.078;2023-12-07T04:17:29;97995.25;;;1.64;89.97
26083;BME280;13848;49.018;12.078;2023-12-07T04:19:54;97996.38;;;1.62;90.30
26083;BME280;13848;49.018;12.078;2023-12-07T04:22:20;97997.75;;;1.66;90.35
26083;BME280;13848;49.018;12.078;2023-12-07T04:24:46;97999.56;;;1.65;89.99
26083;BME280;13848;49.018;12.078;2023-12-07T04:27:14;97998.75;;;1.65;90.14
26083;BME280;13848;49.018;12.078;2023-12-07T04:29:40;98002.41;;;1.64;90.25
26083;BME280;13848;49.018;12.078;2023-12-07T04:32:06;98008.22;;;1.67;89.91
26083;BME280;13848;49.018;12.078;2023-12-07T04:34:34;98009.91;;;1.68;90.02
26083;BME280;13848;49.018;12.078;2023-12-07T04:37:00;98014.34;;;1.68;90.01
26083;BME280;13848;49.018;12.078;2023-12-07T04:39:26;98010.03;;;1.67;89.85
26083;BME280;13848;49.018;12.078;2023-12-07T04:41:51;98010.19;;;1.65;90.23
26083;BME280;13848;49.018;12.078;2023-12-07T04:44:19;98013.69;;;1.66;90.20
26083;BME280;13848;49.018;12.078;2023-12-07T04:46:45;98016.19;;;1.67;89.99
26083;BME280;13848;49.018;12.078;2023-12-07T04:49:11;98020.31;;;1.62;90.22
26083;BME280;13848;49.018;12.078;2023-12-07T04:51:37;98019.22;;;1.72;89.87
26083;BME280;13848;49.018;12.078;2023-12-07T04:54:03;98016.53;;;1.72;89.83
26083;BME280;13848;49.018;12.078;2023-12-07T04:56:29;98018.91;;;1.75;89.28
26083;BME280;13848;49.018;12.078;2023-12-07T04:58:55;98018.00;;;1.67;89.85
26083;BME280;13848;49.018;12.078;2023-12-07T05:01:22;98028.59;;;1.58;90.22
26083;BME280;13848;49.018;12.078;2023-12-07T05:03:48;98031.16;;;1.68;89.86
26083;BME280;13848;49.018;12.078;2023-12-07T05:06:14;98034.16;;;1.73;89.55
26083;BME280;13848;49.018;12.078;2023-12-07T05:08:40;98033.03;;;1.76;89.28
26083;BME280;13848;49.018;12.078;2023-12-07T05:11:06;98032.19;;;1.75;89.42
26083;BME280;13848;49.018;12.078;2023-12-07T05:13:32;98033.53;;;1.79;89.74
26083;BME280;13848;49.018;12.078;2023-12-07T05:15:58;98035.22;;;1.80;89.42
26083;BME280;13848;49.018;12.078;2023-12-07T05:18:25;98031.19;;;1.76;89.56
26083;BME280;13848;49.018;12.078;2023-12-07T05:20:51;98032.19;;;1.75;89.46
26083;BME280;13848;49.018;12.078;2023-12-07T05:23:17;98027.72;;;1.76;89.32
26083;BME280;13848;49.018;12.078;2023-12-07T05:25:43;98031.75;;;1.62;89.72
26083;BME280;13848;49.018;12.078;2023-12-07T05:28:09;98033.31;;;1.73;89.51
26083;BME280;13848;49.018;12.078;2023-12-07T05:30:35;98032.69;;;1.79;89.09
26083;BME280;13848;49.018;12.078;2023-12-07T05:33:01;98038.53;;;1.82;89.53
26083;BME280;13848;49.018;12.078;2023-12-07T05:35:28;98028.53;;;1.76;88.73
26083;BME280;13848;49.018;12.078;2023-12-07T05:37:54;98038.63;;;1.73;89.25
26083;BME280;13848;49.018;12.078;2023-12-07T05:40:20;98041.66;;;1.78;89.68
26083;BME280;13848;49.018;12.078;2023-12-07T05:42:49;98042.38;;;1.80;89.36
26083;BME280;13848;49.018;12.078;2023-12-07T05:45:15;98042.88;;;1.83;89.18
26083;BME280;13848;49.018;12.078;2023-12-07T05:47:41;98040.16;;;1.75;89.40
26083;BME280;13848;49.018;12.078;2023-12-07T05:50:07;98041.16;;;1.74;89.54
26083;BME280;13848;49.018;12.078;2023-12-07T05:52:35;98039.13;;;1.68;89.68
26083;BME280;13848;49.018;12.078;2023-12-07T05:55:01;98041.47;;;1.71;89.49
26083;BME280;13848;49.018;12.078;2023-12-07T05:57:27;98050.09;;;1.73;89.91
26083;BME280;13848;49.018;12.078;2023-12-07T05:59:52;98054.91;;;1.70;90.08
26083;BME280;13848;49.018;12.078;2023-12-07T06:02:18;98061.06;;;1.70;89.68
26083;BME280;13848;49.018;12.078;2023-12-07T06:04:44;98059.69;;;1.66;89.71
26083;BME280;13848;49.018;12.078;2023-12-07T06:07:10;98053.75;;;1.72;89.81
26083;BME280;13848;49.018;12.078;2023-12-07T06:09:37;98052.47;;;1.76;89.78
26083;BME280;13848;49.018;12.078;2023-12-07T06:12:04;98048.66;;;1.79;89.78
26083;BME280;13848;49.018;12.078;2023-12-07T06:14:30;98052.13;;;1.79;89.34
26083;BME280;13848;49.018;12.078;2023-12-07T06:16:56;98050.81;;;1.75;89.70
26083;BME280;13848;49.018;12.078;2023-12-07T06:19:21;98049.28;;;1.73;89.49
26083;BME280;13848;49.018;12.078;2023-12-07T06:21:47;98050.44;;;1.70;89.90
26083;BME280;13848;49.018;12.078;2023-12-07T06:24:13;98050.09;;;1.73;89.75
26083;BME280;13848;49.018;12.078;2023-12-07T06:26:41;98052.56;;;1.67;89.58
26083;BME280;13848;49.018;12.078;2023-12-07T06:29:06;98058.34;;;1.62;90.26
26083;BME280;13848;49.018;12.078;2023-12-07T06:31:33;98048.66;;;1.53;90.45
26083;BME280;13848;49.018;12.078;2023-12-07T06:33:59;98057.00;;;1.58;90.41
26083;BME280;13848;49.018;12.078;2023-12-07T06:36:25;98053.97;;;1.53;90.50
26083;BME280;13848;49.018;12.078;2023-12-07T06:38:50;98053.81;;;1.54;90.19
26083;BME280;13848;49.018;12.078;2023-12-07T06:41:16;98053.72;;;1.64;90.26
26083;BME280;13848;49.018;12.078;2023-12-07T06:43:44;98053.34;;;1.59;90.24
26083;BME280;13848;49.018;12.078;2023-12-07T06:46:11;98057.00;;;1.58;90.35
26083;BME280;13848;49.018;12.078;2023-12-07T06:48:37;98058.03;;;1.65;90.12
26083;BME280;13848;49.018;12.078;2023-12-07T06:51:03;98058.03;;;1.65;90.10
26083;BME280;13848;49.018;12.078;2023-12-07T06:53:29;98062.97;;;1.60;90.03
26083;BME280;13848;49.018;12.078;2023-12-07T06:55:55;98065.34;;;1.63;89.43
26083;BME280;13848;49.018;12.078;2023-12-07T06:58:21;98061.38;;;1.67;89.58
26083;BME280;13848;49.018;12.078;2023-12-07T07:00:48;98066.47;;;1.60;89.49
26083;BME280;13848;49.018;12.078;2023-12-07T07:03:14;98073.56;;;1.52;89.90
26083;BME280;13848;49.018;12.078;2023-12-07T07:05:40;98075.84;;;1.47;90.07
26083;BME280;13848;49.018;12.078;2023-12-07T07:08:06;98081.16;;;1.47;90.10
26083;BME280;13848;49.018;12.078;2023-12-07T07:10:32;98080.13;;;1.40;90.00
26083;BME280;13848;49.018;12.078;2023-12-07T07:12:59;98081.47;;;1.44;90.61
26083;BME280;13848;49.018;12.078;2023-12-07T07:15:25;98084.13;;;1.44;90.31
26083;BME280;13848;49.018;12.078;2023-12-07T07:17:53;98085.06;;;1.35;90.13
26083;BME280;13848;49.018;12.078;2023-12-07T07:20:18;98083.75;;;1.39;90.69
26083;BME280;13848;49.018;12.078;2023-12-07T07:22:44;98095.75;;;1.43;90.39
26083;BME280;13848;49.018;12.078;2023-12-07T07:25:10;98097.41;;;1.44;90.57
26083;BME280;13848;49.018;12.078;2023-12-07T07:27:36;98088.34;;;1.28;90.67
26083;BME280;13848;49.018;12.078;2023-12-07T07:30:03;98086.88;;;1.34;90.73
26083;BME280;13848;49.018;12.078;2023-12-07T07:32:29;98095.56;;;1.44;90.81
26083;BME280;13848;49.018;12.078;2023-12-07T07:34:56;98090.56;;;1.59;90.06
26083;BME280;13848;49.018;12.078;2023-12-07T07:37:22;98093.22;;;1.59;89.80
26083;BME280;13848;49.018;12.078;2023-12-07T07:39:48;98094.97;;;1.50;90.08
26083;BME280;13848;49.018;12.078;2023-12-07T07:42:14;98091.84;;;1.55;89.94
26083;BME280;13848;49.018;12.078;2023-12-07T07:44:40;98090.56;;;1.59;90.00
26083;BME280;13848;49.018;12.078;2023-12-07T07:47:05;98086.06;;;1.59;90.08
26083;BME280;13848;49.018;12.078;2023-12-07T07:49:31;98092.59;;;1.65;90.00
26083;BME280;13848;49.018;12.078;2023-12-07T07:51:59;98103.59;;;1.70;90.25
26083;BME280;13848;49.018;12.078;2023-12-07T07:54:25;98100.78;;;1.72;89.82
26083;BME280;13848;49.018;12.078;2023-12-07T07:56:51;98103.25;;;1.73;90.00
26083;BME280;13848;49.018;12.078;2023-12-07T07:59:17;98099.66;;;1.74;89.86
26083;BME280;13848;49.018;12.078;2023-12-07T08:01:45;98106.47;;;1.77;89.55
26083;BME280;13848;49.018;12.078;2023-12-07T08:04:11;98111.81;;;1.59;89.80
26083;BME280;13848;49.018;12.078;2023-12-07T08:06:37;98109.19;;;1.67;90.10
26083;BME280;13848;49.018;12.078;2023-12-07T08:09:04;98107.13;;;1.79;89.87
26083;BME280;13848;49.018;12.078;2023-12-07T08:11:30;98105.28;;;1.79;89.84
26083;BME280;13848;49.018;12.078;2023-12-07T08:13:56;98114.47;;;1.85;89.50
26083;BME280;13848;49.018;12.078;2023-12-07T08:16:22;98114.97;;;1.80;89.58
26083;BME280;13848;49.018;12.078;2023-12-07T08:18:48;98120.78;;;1.84;89.99
26083;BME280;13848;49.018;12.078;2023-12-07T08:21:19;98121.94;;;1.81;89.86
26083;BME280;13848;49.018;12.078;2023-12-07T08:23:45;98118.69;;;1.96;89.78
26083;BME280;13848;49.018;12.078;2023-12-07T08:26:12;98109.44;;;2.00;89.38
26083;BME280;13848;49.018;12.078;2023-12-07T08:28:38;98116.72;;;1.72;89.54
26083;BME280;13848;49.018;12.078;2023-12-07T08:31:04;98120.25;;;1.54;90.85
26083;BME280;13848;49.018;12.078;2023-12-07T08:33:30;98117.41;;;1.56;90.49
26083;BME280;13848;49.018;12.078;2023-12-07T08:35:56;98118.16;;;1.66;89.93
26083;BME280;13848;49.018;12.078;2023-12-07T08:38:22;98123.28;;;1.85;90.18
26083;BME280;13848;49.018;12.078;2023-12-07T08:40:47;98121.50;;;2.20;89.48
26083;BME280;13848;49.018;12.078;2023-12-07T08:43:15;98121.53;;;2.62;89.29
26083;BME280;13848;49.018;12.078;2023-12-07T08:45:41;98125.34;;;2.60;88.37
26083;BME280;13848;49.018;12.078;2023-12-07T08:48:07;98128.41;;;2.73;87.73
26083;BME280;13848;49.018;12.078;2023-12-07T08:50:33;98129.72;;;2.77;87.28
26083;BME280;13848;49.018;12.078;2023-12-07T08:52:58;98140.53;;;3.34;88.53
26083;BME280;13848;49.018;12.078;2023-12-07T08:55:24;98138.88;;;3.33;85.30
26083;BME280;13848;49.018;12.078;2023-12-07T08:57:52;98143.34;;;3.41;85.02
26083;BME280;13848;49.018;12.078;2023-12-07T09:00:19;98129.22;;;3.57;85.97
26083;BME280;13848;49.018;12.078;2023-12-07T09:02:45;98133.78;;;4.36;86.93
26083;BME280;13848;49.018;12.078;2023-12-07T09:05:11;98127.59;;;4.83;83.54
26083;BME280;13848;49.018;12.078;2023-12-07T09:07:37;98130.34;;;4.98;78.04
26083;BME280;13848;49.018;12.078;2023-12-07T09:10:04;98128.00;;;5.26;77.15
26083;BME280;13848;49.018;12.078;2023-12-07T09:12:30;98119.34;;;6.07;80.06
26083;BME280;13848;49.018;12.078;2023-12-07T09:14:56;98114.00;;;6.07;78.74
26083;BME280;13848;49.018;12.078;2023-12-07T09:17:23;98120.66;;;6.11;76.67
26083;BME280;13848;49.018;12.078;2023-12-07T09:19:49;98125.53;;;5.93;74.94
26083;BME280;13848;49.018;12.078;2023-12-07T09:22:15;98123.16;;;5.52;77.63
26083;BME280;13848;49.018;12.078;2023-12-07T09:24:41;98123.06;;;6.36;75.47
26083;BME280;13848;49.018;12.078;2023-12-07T09:27:07;98121.69;;;7.20;74.72
26083;BME280;13848;49.018;12.078;2023-12-07T09:29:33;98118.31;;;6.97;70.17
26083;BME280;13848;49.018;12.078;2023-12-07T09:31:59;98118.38;;;6.53;68.56
26083;BME280;13848;49.018;12.078;2023-12-07T09:34:26;98118.28;;;6.46;71.51
26083;BME280;13848;49.018;12.078;2023-12-07T09:37:05;98115.31;;;6.71;70.64
26083;BME280;13848;49.018;12.078;2023-12-07T09:39:31;98118.88;;;6.78;72.49
26083;BME280;13848;49.018;12.078;2023-12-07T09:41:57;98122.56;;;7.70;67.69
26083;BME280;13848;49.018;12.078;2023-12-07T09:44:23;98114.50;;;8.41;69.49
26083;BME280;13848;49.018;12.078;2023-12-07T09:46:49;98113.31;;;9.79;65.01
26083;BME280;13848;49.018;12.078;2023-12-07T09:49:15;98108.34;;;9.63;59.79
26083;BME280;13848;49.018;12.078;2023-12-07T09:51:43;98112.47;;;9.79;64.96
26083;BME280;13848;49.018;12.078;2023-12-07T09:54:09;98111.97;;;10.81;60.63
26083;BME280;13848;49.018;12.078;2023-12-07T09:56:36;98109.38;;;11.06;61.60
26083;BME280;13848;49.018;12.078;2023-12-07T09:59:02;98106.81;;;11.18;54.72
26083;BME280;13848;49.018;12.078;2023-12-07T10:01:28;98103.97;;;11.76;57.69
26083;BME280;13848;49.018;12.078;2023-12-07T10:04:16;98101.66;;;12.11;53.07
26083;BME280;13848;49.018;12.078;2023-12-07T10:06:43;98099.03;;;11.73;55.60
26083;BME280;13848;49.018;12.078;2023-12-07T10:09:10;98101.38;;;11.31;53.22
26083;BME280;13848;49.018;12.078;2023-12-07T10:11:36;98094.63;;;12.29;55.91
26083;BME280;13848;49.018;12.078;2023-12-07T10:14:01;98084.03;;;12.70;54.93
26083;BME280;13848;49.018;12.078;2023-12-07T10:16:27;98084.38;;;13.29;53.93
26083;BME280;13848;49.018;12.078;2023-12-07T10:18:53;98083.91;;;13.32;47.89
26083;BME280;13848;49.018;12.078;2023-12-07T10:21:31;98077.84;;;14.37;51.01
26083;BME280;13848;49.018;12.078;2023-12-07T10:23:58;98081.03;;;13.45;50.11
26083;BME280;13848;49.018;12.078;2023-12-07T10:26:24;98076.91;;;14.31;47.23
26083;BME280;13848;49.018;12.078;2023-12-07T10:28:50;98069.59;;;14.32;46.22
26083;BME280;13848;49.018;12.078;2023-12-07T10:31:18;98068.28;;;13.99;45.21
26083;BME280;13848;49.018;12.078;2023-12-07T10:33:47;98067.34;;;13.94;47.95
26083;BME280;13848;49.018;12.078;2023-12-07T10:36:13;98062.06;;;14.57;44.23
26083;BME280;13848;49.018;12.078;2023-12-07T10:38:39;98071.69;;;13.83;45.74
26083;BME280;13848;49.018;12.078;2023-12-07T10:41:07;98060.72;;;13.90;47.35
26083;BME280;13848;49.018;12.078;2023-12-07T10:43:37;98065.06;;;15.53;45.93
26083;BME280;13848;49.018;12.078;2023-12-07T10:46:05;98058.38;;;15.89;44.49
26083;BME280;13848;49.018;12.078;2023-12-07T10:48:32;98060.22;;;16.01;41.94
26083;BME280;13848;49.018;12.078;2023-12-07T10:50:59;98059.56;;;14.44;43.98
26083;BME280;13848;49.018;12.078;2023-12-07T10:53:27;98054.34;;;13.72;44.76
26083;BME280;13848;49.018;12.078;2023-12-07T10:55:55;98048.94;;;14.31;43.99
26083;BME280;13848;49.018;12.078;2023-12-07T10:58:23;98043.53;;;15.63;43.62
26083;BME280;13848;49.018;12.078;2023-12-07T11:00:50;98043.69;;;16.63;41.19
26083;BME280;13848;49.018;12.078;2023-12-07T11:03:18;98045.16;;;14.79;40.99
26083;BME280;13848;49.018;12.078;2023-12-07T11:05:44;98049.91;;;15.00;42.26
26083;BME280;13848;49.018;12.078;2023-12-07T11:08:16;98050.59;;;15.64;43.75
26083;BME280;13848;49.018;12.078;2023-12-07T11:10:51;98041.88;;;16.30;42.03
26083;BME280;13848;49.018;12.078;2023-12-07T11:13:28;98052.59;;;16.97;39.85
26083;BME280;13848;49.018;12.078;2023-12-07T11:15:55;98042.91;;;15.90;40.55
26083;BME280;13848;49.018;12.078;2023-12-07T11:18:24;98046.16;;;16.26;39.75
26083;BME280;13848;49.018;12.078;2023-12-07T11:20:50;98045.66;;;13.40;41.59
26083;BME280;13848;49.018;12.078;2023-12-07T11:23:16;98057.56;;;11.61;44.54
26083;BME280;13848;49.018;12.078;2023-12-07T11:25:43;98048.50;;;10.72;48.05
26083;BME280;13848;49.018;12.078;2023-12-07T11:28:10;98041.59;;;10.18;50.29
26083;BME280;13848;49.018;12.078;2023-12-07T11:30:41;98049.50;;;9.33;51.26
26083;BME280;13848;49.018;12.078;2023-12-07T11:33:08;98053.88;;;8.73;53.23
26083;BME280;13848;49.018;12.078;2023-12-07T11:36:04;98051.44;;;8.92;53.47
26083;BME280;13848;49.018;12.078;2023-12-07T11:38:30;98047.22;;;8.69;53.75
26083;BME280;13848;49.018;12.078;2023-12-07T11:40:56;98035.94;;;8.39;54.53
26083;BME280;13848;49.018;12.078;2023-12-07T11:43:36;98048.25;;;7.22;56.77
26083;BME280;13848;49.018;12.078;2023-12-07T11:46:03;98041.97;;;6.42;60.43
26083;BME280;13848;49.018;12.078;2023-12-07T11:48:30;98044.31;;;6.30;61.70
26083;BME280;13848;49.018;12.078;2023-12-07T11:50:57;98031.94;;;6.14;62.06
26083;BME280;13848;49.018;12.078;2023-12-07T11:53:24;98040.63;;;6.82;60.01
26083;BME280;13848;49.018;12.078;2023-12-07T11:55:51;98036.53;;;6.50;61.70
26083;BME280;13848;49.018;12.078;2023-12-07T11:58:17;98042.00;;;6.12;62.20
26083;BME280;13848;49.018;12.078;2023-12-07T12:00:43;98034.53;;;6.08;62.97
26083;BME280;13848;49.018;12.078;2023-12-07T12:03:12;98030.56;;;6.33;62.58
26083;BME280;13848;49.018;12.078;2023-12-07T12:05:38;98037.44;;;5.83;64.77
26083;BME280;13848;49.018;12.078;2023-12-07T12:08:04;98029.97;;;5.41;65.21
26083;BME280;13848;49.018;12.078;2023-12-07T12:10:30;98023.41;;;5.06;66.84
26083;BME280;13848;49.018;12.078;2023-12-07T12:12:56;98022.09;;;5.25;66.09
26083;BME280;13848;49.018;12.078;2023-12-07T12:15:22;98034.63;;;4.47;68.31
26083;BME280;13848;49.018;12.078;2023-12-07T12:17:48;98031.19;;;4.70;68.10
26083;BME280;13848;49.018;12.078;2023-12-07T12:20:15;98029.34;;;4.93;67.63
26083;BME280;13848;49.018;12.078;2023-12-07T12:22:41;98024.13;;;5.23;66.94
26083;BME280;13848;49.018;12.078;2023-12-07T12:25:08;98026.72;;;5.31;66.90
26083;BME280;13848;49.018;12.078;2023-12-07T12:27:34;98019.09;;;5.43;66.20
26083;BME280;13848;49.018;12.078;2023-12-07T12:30:01;98019.63;;;5.23;66.97
26083;BME280;13848;49.018;12.078;2023-12-07T12:32:28;98015.88;;;5.47;66.72
26083;BME280;13848;49.018;12.078;2023-12-07T12:34:58;98016.88;;;5.08;67.90
26083;BME280;13848;49.018;12.078;2023-12-07T12:37:26;98019.50;;;4.94;67.96
26083;BME280;13848;49.018;12.078;2023-12-07T12:39:52;98015.34;;;4.91;69.10
26083;BME280;13848;49.018;12.078;2023-12-07T12:42:18;98004.91;;;5.04;67.91
26083;BME280;13848;49.018;12.078;2023-12-07T12:44:44;98006.44;;;5.22;67.63
26083;BME280;13848;49.018;12.078;2023-12-07T12:47:10;97995.28;;;4.95;68.39
26083;BME280;13848;49.018;12.078;2023-12-07T12:49:36;97995.56;;;4.46;69.68
26083;BME280;13848;49.018;12.078;2023-12-07T12:52:03;97987.53;;;4.54;69.33
26083;BME280;13848;49.018;12.078;2023-12-07T12:54:31;97987.78;;;4.68;69.64
26083;BME280;13848;49.018;12.078;2023-12-07T12:56:58;97990.97;;;4.86;68.95